createdAt,value
2019-04-23T00:00:20.460Z,15.85
2019-04-23T00:03:01.729Z,15.99
2019-04-23T00:08:07.598Z,15.82
2019-04-23T00:10:28.638Z,15.79
2019-04-23T00:12:52.964Z,15.77
2019-04-23T00:15:26.642Z,15.82
2019-04-23T00:17:55.519Z,15.71
2019-04-23T00:20:25.939Z,15.67
2019-04-23T00:23:14.335Z,15.61
2019-04-23T00:26:02.607Z,15.48
2019-04-23T00:35:55.506Z,15.33
2019-04-23T00:38:26.535Z,15.24
2019-04-23T00:43:21.855Z,15.08
2019-04-23T00:45:48.883Z,15.08
2019-04-23T00:48:31.021Z,15.05
2019-04-23T00:50:58.597Z,15.03
2019-04-23T00:53:18.798Z,15.02
2019-04-23T00:55:49.137Z,14.84
2019-04-23T01:00:47.476Z,14.77
2019-04-23T01:03:15.423Z,14.72
2019-04-23T01:05:41.150Z,14.71
2019-04-23T01:08:13.514Z,14.68
2019-04-23T01:10:52.071Z,14.68
2019-04-23T01:13:25.180Z,14.51
2019-04-23T01:15:48.119Z,14.53
2019-04-23T01:18:28.160Z,14.49
2019-04-23T01:20:51.822Z,14.48
2019-04-23T01:22:59.508Z,14.42
2019-04-23T01:25:43.663Z,14.36
2019-04-23T01:28:30.686Z,14.33
2019-04-23T01:31:07.752Z,14.29
2019-04-23T01:33:32.969Z,14.18
2019-04-23T01:38:30.981Z,14.18
2019-04-23T01:40:45.867Z,14.02
2019-04-23T01:43:23.169Z,14.07
2019-04-23T01:45:44.074Z,14.09
2019-04-23T01:48:19.980Z,14.01
2019-04-23T01:53:18.379Z,14.07
2019-04-23T01:55:49.779Z,14.09
2019-04-23T01:58:32.240Z,14.02
2019-04-23T02:03:18.181Z,14.02
2019-04-23T02:05:42.957Z,14.00
2019-04-23T02:08:10.997Z,13.98
2019-04-23T02:10:44.360Z,13.91
2019-04-23T02:13:14.144Z,13.82
2019-04-23T02:15:38.087Z,13.80
2019-04-23T02:20:36.035Z,13.93
2019-04-23T02:25:58.749Z,13.83
2019-04-23T02:28:32.851Z,13.75
2019-04-23T02:31:18.299Z,13.67
2019-04-23T02:33:44.529Z,13.58
2019-04-23T02:38:31.870Z,13.45
2019-04-23T02:41:08.560Z,13.49
2019-04-23T02:43:26.141Z,13.47
2019-04-23T02:46:04.429Z,13.48
2019-04-23T02:53:31.710Z,13.35
2019-04-23T03:03:37.912Z,13.41
2019-04-23T03:05:46.833Z,13.28
2019-04-23T03:08:13.668Z,13.27
2019-04-23T03:10:57.122Z,13.20
2019-04-23T03:13:21.660Z,13.14
2019-04-23T03:19:05.797Z,13.02
2019-04-23T03:21:52.898Z,12.88
2019-04-23T03:24:35.010Z,12.80
2019-04-23T03:29:39.777Z,12.60
2019-04-23T03:39:18.789Z,12.59
2019-04-23T03:41:48.008Z,12.58
2019-04-23T03:44:14.423Z,12.55
2019-04-23T03:46:37.091Z,12.49
2019-04-23T03:49:07.430Z,12.47
2019-04-23T03:51:46.793Z,12.46
2019-04-23T03:59:11.098Z,12.31
2019-04-23T04:01:38.417Z,12.31
2019-04-23T04:09:17.338Z,12.31
2019-04-23T04:11:25.645Z,12.27
2019-04-23T04:14:12.000Z,12.20
2019-04-23T04:16:39.064Z,12.19
2019-04-23T04:19:08.636Z,12.05
2019-04-23T04:24:20.396Z,12.26
2019-04-23T04:29:11.766Z,12.09
2019-04-23T04:31:40.025Z,12.08
2019-04-23T04:34:25.809Z,12.08
2019-04-23T04:41:25.494Z,12.02
2019-04-23T04:48:49.181Z,12.02
2019-04-23T05:01:16.607Z,12.10
2019-04-23T05:03:29.165Z,12.12
2019-04-23T05:06:18.308Z,12.13
2019-04-23T05:08:41.537Z,12.11
2019-04-23T05:18:38.467Z,12.23
2019-04-23T05:21:08.218Z,12.26
2019-04-23T05:26:13.609Z,12.36
2019-04-23T05:28:38.821Z,12.43
2019-04-23T05:31:05.791Z,12.48
2019-04-23T05:33:43.442Z,12.48
2019-04-23T05:38:43.295Z,12.75
2019-04-23T05:41:15.326Z,12.63
2019-04-23T05:43:37.342Z,12.68
2019-04-23T05:46:04.429Z,12.75
2019-04-23T05:48:49.174Z,12.83
2019-04-23T05:51:04.539Z,12.95
2019-04-23T05:58:28.824Z,14.57
2019-04-23T06:01:13.385Z,14.82
2019-04-23T06:03:29.103Z,14.65
2019-04-23T06:06:03.033Z,14.98
2019-04-23T06:08:33.717Z,15.34
2019-04-23T06:11:00.431Z,15.51
2019-04-23T06:13:26.034Z,16.01
2019-04-23T06:15:53.978Z,15.91
2019-04-23T06:18:28.549Z,16.31
2019-04-23T06:23:26.962Z,16.58
2019-04-23T06:26:02.299Z,16.66
2019-04-23T06:28:22.440Z,17.32
2019-04-23T06:30:49.078Z,17.58
2019-04-23T06:33:20.975Z,17.50
2019-04-23T06:35:46.951Z,17.62
2019-04-23T06:40:41.433Z,17.22
2019-04-23T06:43:22.712Z,17.02
2019-04-23T06:45:57.486Z,17.55
2019-04-23T06:48:20.642Z,17.68
2019-04-23T06:53:10.608Z,17.04
2019-04-23T06:55:42.548Z,17.16
2019-04-23T06:58:13.537Z,17.09
2019-04-23T07:00:41.317Z,17.47
2019-04-23T07:03:07.718Z,18.37
2019-04-23T07:06:05.288Z,20.73
2019-04-23T07:08:34.686Z,21.82
2019-04-23T07:10:57.541Z,23.72
2019-04-23T07:13:26.079Z,24.48
2019-04-23T07:16:03.442Z,25.44
2019-04-23T07:18:18.151Z,25.42
2019-04-23T07:20:51.177Z,26.36
2019-04-23T07:23:24.600Z,26.83
2019-04-23T07:25:46.799Z,27.43
2019-04-23T07:28:18.049Z,27.74
2019-04-23T07:30:38.366Z,26.61
2019-04-23T07:33:11.923Z,25.59
2019-04-23T07:35:47.946Z,25.64
2019-04-23T07:38:44.258Z,26.64
2019-04-23T07:41:19.940Z,27.71
2019-04-23T07:43:48.598Z,28.53
2019-04-23T07:46:46.333Z,28.86
2019-04-23T07:48:49.114Z,29.53
2019-04-23T07:51:19.796Z,30.64
2019-04-23T07:54:05.872Z,31.24
2019-04-23T07:56:58.542Z,31.44
2019-04-23T08:00:00.786Z,31.31
2019-04-23T08:02:33.579Z,31.60
2019-04-23T08:05:25.162Z,30.87
2019-04-23T08:11:11.012Z,30.28
2019-04-23T08:16:36.708Z,30.17
2019-04-23T08:17:16.087Z,29.68
2019-04-23T08:19:16.983Z,31.25
2019-04-23T08:21:37.798Z,31.96
2019-04-23T08:24:38.079Z,31.25
2019-04-23T08:27:28.214Z,31.77
2019-04-23T08:30:24.055Z,32.03
2019-04-23T08:33:08.451Z,32.22
2019-04-23T08:35:45.434Z,32.78
2019-04-23T08:38:37.892Z,33.68
2019-04-23T08:44:59.463Z,34.13
2019-04-23T08:52:48.373Z,33.65
2019-04-23T09:00:09.032Z,34.13
2019-04-23T09:02:40.317Z,33.44
2019-04-23T09:08:33.143Z,32.99
2019-04-23T09:20:07.057Z,30.18
2019-04-23T09:25:25.336Z,29.17
2019-04-23T09:27:47.097Z,29.69
2019-04-23T09:30:25.633Z,29.10
2019-04-23T09:33:13.931Z,28.48
2019-04-23T09:39:51.281Z,28.50
2019-04-23T09:43:00.676Z,28.83
2019-04-23T09:48:58.003Z,29.21
2019-04-23T09:55:32.173Z,29.69
2019-04-23T09:58:03.130Z,30.05
2019-04-23T10:03:16.662Z,30.59
2019-04-23T10:05:56.339Z,30.79
2019-04-23T10:08:27.925Z,31.29
2019-04-23T10:11:28.560Z,31.24
2019-04-23T10:13:48.426Z,31.07
2019-04-23T10:16:42.914Z,32.46
2019-04-23T10:19:15.134Z,31.23
2019-04-23T10:21:51.503Z,31.38
2019-04-23T10:24:39.236Z,31.82
2019-04-23T10:27:31.004Z,31.69
2019-04-23T10:29:56.129Z,31.22
2019-04-23T10:32:29.758Z,30.30
2019-04-23T10:37:49.116Z,29.78
2019-04-23T10:40:19.401Z,29.15
2019-04-23T10:46:32.556Z,28.54
2019-04-23T10:54:59.041Z,26.86
2019-04-23T10:57:25.296Z,26.61
2019-04-23T10:59:53.932Z,26.25
2019-04-23T11:02:59.106Z,26.24
2019-04-23T11:05:26.638Z,26.05
2019-04-23T11:08:10.508Z,25.71
2019-04-23T11:10:50.331Z,25.90
2019-04-23T11:13:31.986Z,25.70
2019-04-23T11:16:27.609Z,25.21
2019-04-23T11:18:52.162Z,25.44
2019-04-23T11:21:23.958Z,25.05
2019-04-23T11:26:49.572Z,24.98
2019-04-23T11:29:27.635Z,25.05
2019-04-23T11:32:31.361Z,24.39
2019-04-23T11:34:53.020Z,24.87
2019-04-23T11:37:03.599Z,25.08
2019-04-23T11:39:37.791Z,25.24
2019-04-23T11:42:14.456Z,25.15
2019-04-23T11:44:41.952Z,24.94
2019-04-23T11:47:32.604Z,25.08
2019-04-23T11:50:01.479Z,25.25
2019-04-23T11:55:32.831Z,24.96
2019-04-23T11:58:08.408Z,24.77
2019-04-23T12:00:34.869Z,23.96
2019-04-23T12:03:19.312Z,24.55
2019-04-23T12:06:30.111Z,24.55
2019-04-23T12:09:40.050Z,24.37
2019-04-23T12:12:17.157Z,24.75
2019-04-23T12:15:13.428Z,24.63
2019-04-23T12:17:49.092Z,24.49
2019-04-23T12:20:27.122Z,24.50
2019-04-23T12:23:25.934Z,23.81
2019-04-23T12:25:49.900Z,24.04
2019-04-23T12:28:39.857Z,24.06
2019-04-23T12:33:50.219Z,24.37
2019-04-23T12:36:36.919Z,24.51
2019-04-23T12:39:04.340Z,24.22
2019-04-23T12:41:36.143Z,24.53
2019-04-23T12:44:44.173Z,24.86
2019-04-23T12:47:10.359Z,24.79
2019-04-23T12:49:53.303Z,24.69
2019-04-23T12:52:36.437Z,24.69
2019-04-23T13:05:26.710Z,24.47
2019-04-23T13:10:44.150Z,24.48
2019-04-23T13:13:21.153Z,24.35
2019-04-23T13:18:19.519Z,24.34
2019-04-23T13:21:00.114Z,24.23
2019-04-23T13:26:18.472Z,23.87
2019-04-23T13:28:58.143Z,24.08
2019-04-23T13:34:06.926Z,24.44
2019-04-23T13:36:36.241Z,24.58
2019-04-23T13:39:09.456Z,24.20
2019-04-23T13:41:54.061Z,24.20
2019-04-23T13:44:00.120Z,23.92
2019-04-23T13:46:36.058Z,24.27
2019-04-23T13:49:09.979Z,24.52
2019-04-23T13:51:42.741Z,24.57
2019-04-23T13:54:17.317Z,24.57
2019-04-23T13:57:14.418Z,24.75
2019-04-23T13:59:21.761Z,24.70
2019-04-23T14:01:43.040Z,24.54
2019-04-23T14:04:33.314Z,24.46
2019-04-23T14:09:37.312Z,24.52
2019-04-23T14:12:22.339Z,24.77
2019-04-23T14:15:12.559Z,24.80
2019-04-23T14:23:14.230Z,24.87
2019-04-23T14:30:53.537Z,24.88
2019-04-23T14:36:07.524Z,24.66
2019-04-23T14:38:40.079Z,24.60
2019-04-23T14:41:16.484Z,24.57
2019-04-23T14:44:05.338Z,24.66
2019-04-23T14:46:54.875Z,24.51
2019-04-23T14:49:40.848Z,24.40
2019-04-23T14:52:10.566Z,24.28
2019-04-23T14:55:17.902Z,24.35
2019-04-23T14:57:24.528Z,24.39
2019-04-23T14:59:59.953Z,24.33
2019-04-23T15:02:22.845Z,24.29
2019-04-23T15:05:04.131Z,24.20
2019-04-23T15:07:37.540Z,24.14
2019-04-23T15:10:08.846Z,24.09
2019-04-23T15:12:42.513Z,23.92
2019-04-23T15:17:49.704Z,24.08
2019-04-23T15:20:48.832Z,24.12
2019-04-23T15:23:14.289Z,24.15
2019-04-23T15:25:36.967Z,24.13
2019-04-23T15:28:06.717Z,24.05
2019-04-23T15:30:34.849Z,23.98
2019-04-23T15:36:21.982Z,24.00
2019-04-23T15:38:45.384Z,23.98
2019-04-23T15:41:06.674Z,24.07
2019-04-23T15:43:30.557Z,23.93
2019-04-23T15:46:02.588Z,23.90
2019-04-23T15:48:33.048Z,23.91
2019-04-23T15:51:11.723Z,23.89
2019-04-23T15:53:35.274Z,23.99
2019-04-23T15:56:18.706Z,23.98
2019-04-23T15:58:54.152Z,24.08
2019-04-23T16:01:27.105Z,24.05
2019-04-23T16:03:20.536Z,24.09
2019-04-23T16:05:48.880Z,24.09
2019-04-23T16:08:51.715Z,24.06
2019-04-23T16:19:29.221Z,23.91
2019-04-23T16:22:04.605Z,23.74
2019-04-23T16:24:59.046Z,23.68
2019-04-23T16:27:10.743Z,23.69
2019-04-23T16:30:06.322Z,23.82
2019-04-23T16:35:15.574Z,23.89
2019-04-23T16:37:38.843Z,23.94
2019-04-23T16:40:10.331Z,23.97
2019-04-23T16:42:38.528Z,23.95
2019-04-23T16:45:15.215Z,23.79
2019-04-23T16:47:36.536Z,23.65
2019-04-23T16:50:31.100Z,23.64
2019-04-23T16:56:04.268Z,23.64
2019-04-23T16:58:36.707Z,23.38
2019-04-23T17:01:08.599Z,23.33
2019-04-23T17:03:44.597Z,23.13
2019-04-23T17:08:57.430Z,23.02
2019-04-23T17:11:26.949Z,22.93
2019-04-23T17:16:34.232Z,22.71
2019-04-23T17:19:36.810Z,22.68
2019-04-23T17:22:04.621Z,22.64
2019-04-23T17:24:29.908Z,22.72
2019-04-23T17:27:11.086Z,22.61
2019-04-23T17:29:35.220Z,22.50
2019-04-23T17:32:06.017Z,22.40
2019-04-23T17:37:26.722Z,22.19
2019-04-23T17:40:08.694Z,22.16
2019-04-23T17:42:56.279Z,22.03
2019-04-23T17:45:32.430Z,21.98
2019-04-23T17:51:02.438Z,21.84
2019-04-23T17:53:44.405Z,21.97
2019-04-23T17:56:18.513Z,21.82
2019-04-23T17:58:49.951Z,21.98
2019-04-23T18:01:29.288Z,22.01
2019-04-23T18:08:49.260Z,21.72
2019-04-23T18:11:23.315Z,21.62
2019-04-23T18:14:02.550Z,21.54
2019-04-23T18:16:50.451Z,21.43
2019-04-23T18:19:15.029Z,21.57
2019-04-23T18:21:53.304Z,21.60
2019-04-23T18:24:44.909Z,21.41
2019-04-23T18:27:21.551Z,21.28
2019-04-23T18:38:22.859Z,21.13
2019-04-23T18:46:03.958Z,20.88
2019-04-23T18:51:00.350Z,20.71
2019-04-23T18:53:40.885Z,20.78
2019-04-23T18:56:06.590Z,20.78
2019-04-23T18:58:34.488Z,20.59
2019-04-23T19:01:05.229Z,20.71
2019-04-23T19:03:48.404Z,20.71
2019-04-23T19:06:34.606Z,20.47
2019-04-23T19:09:32.323Z,20.38
2019-04-23T19:12:30.738Z,20.24
2019-04-23T19:15:01.129Z,20.15
2019-04-23T19:20:01.083Z,20.10
2019-04-23T19:22:43.205Z,20.02
2019-04-23T19:25:02.030Z,19.98
2019-04-23T19:27:37.645Z,19.95
2019-04-23T19:30:18.872Z,19.89
2019-04-23T19:32:50.853Z,19.85
2019-04-23T19:35:23.917Z,19.79
2019-04-23T19:38:05.819Z,19.73
2019-04-23T19:40:24.521Z,19.70
2019-04-23T19:42:55.410Z,19.63
2019-04-23T19:45:29.805Z,19.61
2019-04-23T19:48:00.154Z,19.58
2019-04-23T19:50:25.915Z,19.57
2019-04-23T19:55:19.203Z,19.51
2019-04-23T19:58:04.220Z,19.45
2019-04-23T20:00:56.757Z,19.44
2019-04-23T20:05:54.405Z,19.41
2019-04-23T20:10:55.974Z,19.45
2019-04-23T20:13:37.819Z,19.28
2019-04-23T20:18:42.759Z,19.16
2019-04-23T20:23:43.244Z,19.10
2019-04-23T20:32:34.600Z,18.94
2019-04-23T20:36:40.096Z,18.92
2019-04-23T20:44:42.903Z,18.98
2019-04-23T20:52:07.207Z,19.05
2019-04-23T20:55:00.082Z,19.14
2019-04-23T20:57:42.567Z,18.91
2019-04-23T21:15:31.344Z,18.56
2019-04-23T21:17:58.136Z,18.53
2019-04-23T21:25:30.192Z,18.55
2019-04-23T21:33:24.570Z,18.25
2019-04-23T21:36:38.513Z,18.28
2019-04-23T21:42:14.829Z,18.23
2019-04-23T21:44:40.737Z,18.40
2019-04-23T21:47:09.923Z,18.26
2019-04-23T21:49:57.894Z,18.19
2019-04-23T21:52:11.457Z,18.15
2019-04-23T21:54:42.950Z,18.04
2019-04-23T21:57:11.024Z,18.26
2019-04-23T21:59:46.753Z,18.38
2019-04-23T22:02:13.326Z,18.17
2019-04-23T22:04:39.789Z,18.15
2019-04-23T22:07:27.385Z,18.13
2019-04-23T22:14:40.145Z,17.97
2019-04-23T22:17:02.993Z,17.90
2019-04-23T22:19:26.444Z,17.90
2019-04-23T22:21:55.590Z,17.91
2019-04-23T22:24:27.619Z,17.83
2019-04-23T22:26:58.156Z,17.88
2019-04-23T22:29:37.748Z,17.83
2019-04-23T22:32:02.456Z,17.78
2019-04-23T22:37:14.876Z,17.75
2019-04-23T22:39:33.778Z,17.93
2019-04-23T22:44:32.866Z,17.73
2019-04-23T22:47:00.654Z,17.63
2019-04-23T22:49:38.891Z,17.62
2019-04-23T22:54:30.627Z,17.59
2019-04-23T23:02:41.527Z,17.37
2019-04-23T23:04:51.610Z,17.33
2019-04-23T23:07:15.769Z,17.28
2019-04-23T23:09:56.459Z,17.28
2019-04-23T23:12:14.551Z,17.27
2019-04-23T23:14:45.910Z,17.23
2019-04-23T23:17:16.255Z,17.16
2019-04-23T23:22:20.136Z,17.14
2019-04-23T23:24:38.624Z,17.00
2019-04-23T23:27:15.213Z,17.07
2019-04-23T23:29:28.055Z,17.03
2019-04-23T23:34:36.202Z,17.04
2019-04-23T23:37:07.523Z,16.94
2019-04-23T23:39:27.172Z,16.81
2019-04-23T23:47:03.839Z,16.91
2019-04-23T23:49:27.831Z,16.86
2019-04-23T23:52:09.520Z,16.89
2019-04-23T23:54:41.486Z,16.87
2019-04-23T23:59:21.145Z,16.80
